sensor_id;sensor_type;location;lat;lon;timestamp;temperature;humidity
13221;DHT22;6675;48.128;11.478;2024-03-07T00:02:10;2.80;96.20
13221;DHT22;6675;48.128;11.478;2024-03-07T00:04:36;5.40;94.60
13221;DHT22;6675;48.128;11.478;2024-03-07T00:07:05;6.90;97.00
13221;DHT22;6675;48.128;11.478;2024-03-07T00:09:33;5.30;94.00
13221;DHT22;6675;48.128;11.478;2024-03-07T00:12:00;4.00;95.90
13221;DHT22;6675;48.128;11.478;2024-03-07T00:14:25;5.10;93.90
13221;DHT22;6675;48.128;11.478;2024-03-07T00:16:56;6.40;96.50
13221;DHT22;6675;48.128;11.478;2024-03-07T00:19:22;4.40;92.90
13221;DHT22;6675;48.128;11.478;2024-03-07T00:21:51;5.20;93.10
13221;DHT22;6675;48.128;11.478;2024-03-07T00:24:17;2.90;94.00
13221;DHT22;6675;48.128;11.478;2024-03-07T00:26:42;4.90;94.60
13221;DHT22;6675;48.128;11.478;2024-03-07T00:29:08;2.50;93.40
13221;DHT22;6675;48.128;11.478;2024-03-07T00:31:34;4.70;91.40
13221;DHT22;6675;48.128;11.478;2024-03-07T00:33:59;4.90;90.40
13221;DHT22;6675;48.128;11.478;2024-03-07T00:36:25;4.80;90.40
13221;DHT22;6675;48.128;11.478;2024-03-07T00:38:53;5.50;92.00
13221;DHT22;6675;48.128;11.478;2024-03-07T00:41:19;5.00;88.90
13221;DHT22;6675;48.128;11.478;2024-03-07T00:43:45;5.10;91.20
13221;DHT22;6675;48.128;11.478;2024-03-07T00:46:11;4.90;87.00
13221;DHT22;6675;48.128;11.478;2024-03-07T00:48:40;5.00;85.90
13221;DHT22;6675;48.128;11.478;2024-03-07T00:51:05;4.90;85.80
13221;DHT22;6675;48.128;11.478;2024-03-07T00:53:31;4.80;84.30
13221;DHT22;6675;48.128;11.478;2024-03-07T00:55:57;4.40;84.20
13221;DHT22;6675;48.128;11.478;2024-03-07T00:58:22;4.90;83.90
13221;DHT22;6675;48.128;11.478;2024-03-07T01:00:48;4.70;83.80
13221;DHT22;6675;48.128;11.478;2024-03-07T01:03:14;5.00;83.10
13221;DHT22;6675;48.128;11.478;2024-03-07T01:05:43;4.50;83.10
13221;DHT22;6675;48.128;11.478;2024-03-07T01:08:08;5.00;82.90
13221;DHT22;6675;48.128;11.478;2024-03-07T01:10:34;7.00;89.10
13221;DHT22;6675;48.128;11.478;2024-03-07T01:12:59;4.80;81.40
13221;DHT22;6675;48.128;11.478;2024-03-07T01:15:32;4.40;80.80
13221;DHT22;6675;48.128;11.478;2024-03-07T01:17:58;5.20;79.70
13221;DHT22;6675;48.128;11.478;2024-03-07T01:20:23;4.50;79.30
13221;DHT22;6675;48.128;11.478;2024-03-07T01:22:51;6.80;84.20
13221;DHT22;6675;48.128;11.478;2024-03-07T01:25:17;4.90;77.00
13221;DHT22;6675;48.128;11.478;2024-03-07T01:27:42;4.90;76.80
13221;DHT22;6675;48.128;11.478;2024-03-07T01:30:09;4.90;76.30
13221;DHT22;6675;48.128;11.478;2024-03-07T01:32:35;4.90;76.20
13221;DHT22;6675;48.128;11.478;2024-03-07T01:35:00;5.00;79.70
13221;DHT22;6675;48.128;11.478;2024-03-07T01:37:26;4.20;73.10
13221;DHT22;6675;48.128;11.478;2024-03-07T01:39:52;4.70;72.90
13221;DHT22;6675;48.128;11.478;2024-03-07T01:42:17;4.40;71.80
13221;DHT22;6675;48.128;11.478;2024-03-07T01:44:43;4.50;72.30
13221;DHT22;6675;48.128;11.478;2024-03-07T01:47:09;4.20;72.30
13221;DHT22;6675;48.128;11.478;2024-03-07T01:49:36;4.30;71.10
13221;DHT22;6675;48.128;11.478;2024-03-07T01:52:02;2.40;74.50
13221;DHT22;6675;48.128;11.478;2024-03-07T01:54:30;4.50;70.20
13221;DHT22;6675;48.128;11.478;2024-03-07T01:56:56;2.00;74.00
13221;DHT22;6675;48.128;11.478;2024-03-07T01:59:22;3.30;74.30
13221;DHT22;6675;48.128;11.478;2024-03-07T02:01:47;5.00;75.40
13221;DHT22;6675;48.128;11.478;2024-03-07T02:06:39;5.50;72.50
13221;DHT22;6675;48.128;11.478;2024-03-07T02:09:06;4.20;64.00
13221;DHT22;6675;48.128;11.478;2024-03-07T02:11:32;4.30;61.90
13221;DHT22;6675;48.128;11.478;2024-03-07T02:13:58;4.30;62.10
13221;DHT22;6675;48.128;11.478;2024-03-07T02:16:24;4.60;68.20
13221;DHT22;6675;48.128;11.478;2024-03-07T02:18:50;3.90;61.70
13221;DHT22;6675;48.128;11.478;2024-03-07T02:21:16;4.30;61.70
13221;DHT22;6675;48.128;11.478;2024-03-07T02:26:07;4.10;59.60
13221;DHT22;6675;48.128;11.478;2024-03-07T02:28:34;5.70;63.30
13221;DHT22;6675;48.128;11.478;2024-03-07T02:31:00;3.70;53.90
13221;DHT22;6675;48.128;11.478;2024-03-07T02:33:26;4.20;52.50
13221;DHT22;6675;48.128;11.478;2024-03-07T02:35:51;3.80;51.80
13221;DHT22;6675;48.128;11.478;2024-03-07T02:38:18;3.70;49.40
13221;DHT22;6675;48.128;11.478;2024-03-07T02:40:45;4.90;56.30
13221;DHT22;6675;48.128;11.478;2024-03-07T02:43:11;3.70;44.30
13221;DHT22;6675;48.128;11.478;2024-03-07T02:48:04;3.60;42.10
13221;DHT22;6675;48.128;11.478;2024-03-07T02:50:35;3.80;42.00
13221;DHT22;6675;48.128;11.478;2024-03-07T02:53:03;3.10;52.40
13221;DHT22;6675;48.128;11.478;2024-03-07T02:55:29;5.20;53.80
13221;DHT22;6675;48.128;11.478;2024-03-07T02:57:54;3.20;42.60
13221;DHT22;6675;48.128;11.478;2024-03-07T03:00:21;3.50;43.00
13221;DHT22;6675;48.128;11.478;2024-03-07T03:02:52;4.80;52.90
13221;DHT22;6675;48.128;11.478;2024-03-07T03:05:18;3.70;42.30
13221;DHT22;6675;48.128;11.478;2024-03-07T03:07:44;2.80;39.00
13221;DHT22;6675;48.128;11.478;2024-03-07T03:10:24;3.30;39.20
13221;DHT22;6675;48.128;11.478;2024-03-07T03:12:52;3.30;39.30
13221;DHT22;6675;48.128;11.478;2024-03-07T03:15:18;3.30;50.00
13221;DHT22;6675;48.128;11.478;2024-03-07T03:17:46;4.80;50.10
13221;DHT22;6675;48.128;11.478;2024-03-07T03:20:12;3.60;49.40
13221;DHT22;6675;48.128;11.478;2024-03-07T03:22:50;4.90;50.60
13221;DHT22;6675;48.128;11.478;2024-03-07T03:25:15;2.60;48.90
13221;DHT22;6675;48.128;11.478;2024-03-07T03:27:41;3.40;40.00
13221;DHT22;6675;48.128;11.478;2024-03-07T03:30:07;3.40;39.20
13221;DHT22;6675;48.128;11.478;2024-03-07T03:32:33;3.40;39.20
13221;DHT22;6675;48.128;11.478;2024-03-07T03:34:58;1.10;47.30
13221;DHT22;6675;48.128;11.478;2024-03-07T03:37:24;2.40;46.30
13221;DHT22;6675;48.128;11.478;2024-03-07T03:39:49;3.20;37.20
13221;DHT22;6675;48.128;11.478;2024-03-07T03:42:16;3.50;46.10
13221;DHT22;6675;48.128;11.478;2024-03-07T03:44:41;3.60;43.90
13221;DHT22;6675;48.128;11.478;2024-03-07T03:47:07;3.00;32.40
13221;DHT22;6675;48.128;11.478;2024-03-07T03:49:32;3.30;44.90
13221;DHT22;6675;48.128;11.478;2024-03-07T03:51:58;1.20;42.70
13221;DHT22;6675;48.128;11.478;2024-03-07T03:54:24;4.30;45.90
13221;DHT22;6675;48.128;11.478;2024-03-07T03:56:49;3.00;35.50
13221;DHT22;6675;48.128;11.478;2024-03-07T03:59:15;2.90;35.50
13221;DHT22;6675;48.128;11.478;2024-03-07T04:04:07;0.20;41.40
13221;DHT22;6675;48.128;11.478;2024-03-07T04:06:32;3.80;45.80
13221;DHT22;6675;48.128;11.478;2024-03-07T04:08:59;4.00;46.40
13221;DHT22;6675;48.128;11.478;2024-03-07T04:11:24;2.90;35.20
13221;DHT22;6675;48.128;11.478;2024-03-07T04:13:50;2.90;35.40
13221;DHT22;6675;48.128;11.478;2024-03-07T04:16:15;2.40;36.60
13221;DHT22;6675;48.128;11.478;2024-03-07T04:18:42;1.80;46.00
13221;DHT22;6675;48.128;11.478;2024-03-07T04:21:07;2.50;47.30
13221;DHT22;6675;48.128;11.478;2024-03-07T04:23:34;3.50;47.70
13221;DHT22;6675;48.128;11.478;2024-03-07T04:26:00;2.60;37.20
13221;DHT22;6675;48.128;11.478;2024-03-07T04:28:26;3.00;37.80
13221;DHT22;6675;48.128;11.478;2024-03-07T04:33:19;2.80;39.20
13221;DHT22;6675;48.128;11.478;2024-03-07T04:35:45;2.60;39.30
13221;DHT22;6675;48.128;11.478;2024-03-07T04:38:10;2.60;38.60
13221;DHT22;6675;48.128;11.478;2024-03-07T04:40:41;4.80;51.00
13221;DHT22;6675;48.128;11.478;2024-03-07T04:43:07;2.70;39.80
13221;DHT22;6675;48.128;11.478;2024-03-07T04:45:33;2.40;39.60
13221;DHT22;6675;48.128;11.478;2024-03-07T04:47:59;4.10;49.10
13221;DHT22;6675;48.128;11.478;2024-03-07T04:50:25;2.60;38.10
13221;DHT22;6675;48.128;11.478;2024-03-07T04:55:18;2.20;48.90
13221;DHT22;6675;48.128;11.478;2024-03-07T04:57:44;3.40;49.30
13221;DHT22;6675;48.128;11.478;2024-03-07T05:00:13;2.20;38.30
13221;DHT22;6675;48.128;11.478;2024-03-07T05:02:47;-0.30;45.70
13221;DHT22;6675;48.128;11.478;2024-03-07T05:05:13;3.00;49.10
13221;DHT22;6675;48.128;11.478;2024-03-07T05:10:07;3.80;50.50
13221;DHT22;6675;48.128;11.478;2024-03-07T05:12:33;2.50;38.80
13221;DHT22;6675;48.128;11.478;2024-03-07T05:14:59;3.50;51.10
13221;DHT22;6675;48.128;11.478;2024-03-07T05:17:24;4.00;50.40
13221;DHT22;6675;48.128;11.478;2024-03-07T05:19:50;2.50;39.50
13221;DHT22;6675;48.128;11.478;2024-03-07T05:22:16;2.20;38.40
13221;DHT22;6675;48.128;11.478;2024-03-07T05:24:42;2.70;38.50
13221;DHT22;6675;48.128;11.478;2024-03-07T05:29:38;4.00;52.30
13221;DHT22;6675;48.128;11.478;2024-03-07T05:32:24;3.40;50.70
13221;DHT22;6675;48.128;11.478;2024-03-07T05:34:49;2.60;39.80
13221;DHT22;6675;48.128;11.478;2024-03-07T05:37:15;2.40;39.00
13221;DHT22;6675;48.128;11.478;2024-03-07T05:39:40;2.40;38.90
13221;DHT22;6675;48.128;11.478;2024-03-07T05:42:06;2.70;50.10
13221;DHT22;6675;48.128;11.478;2024-03-07T05:44:32;2.60;42.80
13221;DHT22;6675;48.128;11.478;2024-03-07T05:46:58;3.10;49.30
13221;DHT22;6675;48.128;11.478;2024-03-07T05:49:24;2.60;49.70
13221;DHT22;6675;48.128;11.478;2024-03-07T05:51:49;1.90;38.90
13221;DHT22;6675;48.128;11.478;2024-03-07T05:54:15;2.70;49.90
13221;DHT22;6675;48.128;11.478;2024-03-07T05:56:41;2.00;39.60
13221;DHT22;6675;48.128;11.478;2024-03-07T05:59:07;2.80;50.50
13221;DHT22;6675;48.128;11.478;2024-03-07T06:01:37;2.50;40.60
13221;DHT22;6675;48.128;11.478;2024-03-07T06:04:05;2.80;48.80
13221;DHT22;6675;48.128;11.478;2024-03-07T06:06:31;2.50;38.60
13221;DHT22;6675;48.128;11.478;2024-03-07T06:08:59;2.90;49.20
13221;DHT22;6675;48.128;11.478;2024-03-07T06:13:51;2.70;37.20
13221;DHT22;6675;48.128;11.478;2024-03-07T06:16:17;2.00;37.00
13221;DHT22;6675;48.128;11.478;2024-03-07T06:18:43;4.40;48.60
13221;DHT22;6675;48.128;11.478;2024-03-07T06:21:11;1.00;44.80
13221;DHT22;6675;48.128;11.478;2024-03-07T06:23:38;2.90;36.30
13221;DHT22;6675;48.128;11.478;2024-03-07T06:26:04;2.80;37.30
13221;DHT22;6675;48.128;11.478;2024-03-07T06:28:41;4.20;46.70
13221;DHT22;6675;48.128;11.478;2024-03-07T06:33:33;3.20;45.30
13221;DHT22;6675;48.128;11.478;2024-03-07T06:35:59;2.80;36.20
13221;DHT22;6675;48.128;11.478;2024-03-07T06:38:26;2.50;33.60
13221;DHT22;6675;48.128;11.478;2024-03-07T06:40:52;4.60;46.80
13221;DHT22;6675;48.128;11.478;2024-03-07T06:48:11;5.20;45.80
13221;DHT22;6675;48.128;11.478;2024-03-07T06:50:39;3.40;44.00
13221;DHT22;6675;48.128;11.478;2024-03-07T06:53:05;5.40;44.90
13221;DHT22;6675;48.128;11.478;2024-03-07T06:55:34;3.00;33.90
13221;DHT22;6675;48.128;11.478;2024-03-07T06:58:01;3.10;33.00
13221;DHT22;6675;48.128;11.478;2024-03-07T07:00:30;3.10;29.60
13221;DHT22;6675;48.128;11.478;2024-03-07T07:02:57;4.00;38.00
13221;DHT22;6675;48.128;11.478;2024-03-07T07:07:49;3.40;27.40
13221;DHT22;6675;48.128;11.478;2024-03-07T07:10:14;3.90;37.80
13221;DHT22;6675;48.128;11.478;2024-03-07T07:12:44;1.60;33.40
13221;DHT22;6675;48.128;11.478;2024-03-07T07:15:11;4.00;36.90
13221;DHT22;6675;48.128;11.478;2024-03-07T07:17:38;4.70;38.20
13221;DHT22;6675;48.128;11.478;2024-03-07T07:20:04;1.30;35.10
13221;DHT22;6675;48.128;11.478;2024-03-07T07:22:38;4.40;29.60
13221;DHT22;6675;48.128;11.478;2024-03-07T07:25:05;4.40;29.00
13221;DHT22;6675;48.128;11.478;2024-03-07T07:27:32;4.60;20.10
13221;DHT22;6675;48.128;11.478;2024-03-07T07:29:58;2.10;23.70
13221;DHT22;6675;48.128;11.478;2024-03-07T07:34:49;7.20;22.90
13221;DHT22;6675;48.128;11.478;2024-03-07T07:37:15;4.80;14.50
13221;DHT22;6675;48.128;11.478;2024-03-07T07:39:40;6.30;21.90
13221;DHT22;6675;48.128;11.478;2024-03-07T07:42:06;5.30;14.50
13221;DHT22;6675;48.128;11.478;2024-03-07T07:44:31;7.40;18.40
13221;DHT22;6675;48.128;11.478;2024-03-07T07:46:58;5.30;10.50
13221;DHT22;6675;48.128;11.478;2024-03-07T07:49:24;5.90;16.30
13221;DHT22;6675;48.128;11.478;2024-03-07T07:51:49;5.70;8.80
13221;DHT22;6675;48.128;11.478;2024-03-07T07:54:15;6.00;7.00
13221;DHT22;6675;48.128;11.478;2024-03-07T07:56:41;6.00;6.50
13221;DHT22;6675;48.128;11.478;2024-03-07T07:59:06;5.90;5.40
13221;DHT22;6675;48.128;11.478;2024-03-07T08:01:34;5.80;4.90
13221;DHT22;6675;48.128;11.478;2024-03-07T08:04:00;6.30;4.60
13221;DHT22;6675;48.128;11.478;2024-03-07T08:06:26;5.80;3.00
13221;DHT22;6675;48.128;11.478;2024-03-07T08:08:52;4.20;5.60
13221;DHT22;6675;48.128;11.478;2024-03-07T08:11:17;4.00;7.00
13221;DHT22;6675;48.128;11.478;2024-03-07T08:13:43;6.50;3.20
13221;DHT22;6675;48.128;11.478;2024-03-07T08:16:10;6.60;1.80
13221;DHT22;6675;48.128;11.478;2024-03-07T08:18:36;6.70;1.40
13221;DHT22;6675;48.128;11.478;2024-03-07T08:21:02;6.50;3.10
13221;DHT22;6675;48.128;11.478;2024-03-07T08:23:27;7.00;1.10
13221;DHT22;6675;48.128;11.478;2024-03-07T08:25:54;5.00;11.00
13221;DHT22;6675;48.128;11.478;2024-03-07T08:28:20;7.00;8.80
13221;DHT22;6675;48.128;11.478;2024-03-07T08:30:46;7.30;11.40
13221;DHT22;6675;48.128;11.478;2024-03-07T08:33:11;8.60;14.70
13221;DHT22;6675;48.128;11.478;2024-03-07T08:35:38;8.80;11.00
13221;DHT22;6675;48.128;11.478;2024-03-07T08:38:04;9.60;1.00
13221;DHT22;6675;48.128;11.478;2024-03-07T08:40:30;11.00;1.00
13221;DHT22;6675;48.128;11.478;2024-03-07T08:42:57;12.50;1.00
13221;DHT22;6675;48.128;11.478;2024-03-07T08:45:24;13.70;1.00
13221;DHT22;6675;48.128;11.478;2024-03-07T08:47:51;15.10;1.00
13221;DHT22;6675;48.128;11.478;2024-03-07T08:50:17;16.60;1.00
13221;DHT22;6675;48.128;11.478;2024-03-07T08:52:48;17.50;1.00
13221;DHT22;6675;48.128;11.478;2024-03-07T08:55:20;17.20;1.00
13221;DHT22;6675;48.128;11.478;2024-03-07T08:57:46;17.40;1.00
13221;DHT22;6675;48.128;11.478;2024-03-07T09:00:14;18.10;1.00
13221;DHT22;6675;48.128;11.478;2024-03-07T09:02:51;19.30;1.00
13221;DHT22;6675;48.128;11.478;2024-03-07T09:05:21;19.20;1.00
13221;DHT22;6675;48.128;11.478;2024-03-07T09:07:51;19.20;1.00
13221;DHT22;6675;48.128;11.478;2024-03-07T09:10:17;17.60;1.00
13221;DHT22;6675;48.128;11.478;2024-03-07T09:12:43;16.50;1.00
13221;DHT22;6675;48.128;11.478;2024-03-07T09:15:10;16.30;1.00
13221;DHT22;6675;48.128;11.478;2024-03-07T09:17:36;16.20;1.00
13221;DHT22;6675;48.128;11.478;2024-03-07T09:20:03;16.10;1.00
13221;DHT22;6675;48.128;11.478;2024-03-07T09:22:30;16.10;1.00
13221;DHT22;6675;48.128;11.478;2024-03-07T09:24:57;16.00;1.00
13221;DHT22;6675;48.128;11.478;2024-03-07T09:27:22;15.20;1.00
13221;DHT22;6675;48.128;11.478;2024-03-07T09:29:48;14.50;1.00
13221;DHT22;6675;48.128;11.478;2024-03-07T09:32:14;14.40;1.00
13221;DHT22;6675;48.128;11.478;2024-03-07T09:34:40;13.70;1.00
13221;DHT22;6675;48.128;11.478;2024-03-07T09:37:05;13.10;1.00
13221;DHT22;6675;48.128;11.478;2024-03-07T09:39:34;12.20;1.00
13221;DHT22;6675;48.128;11.478;2024-03-07T09:42:01;11.90;1.00
13221;DHT22;6675;48.128;11.478;2024-03-07T09:44:28;11.60;1.00
13221;DHT22;6675;48.128;11.478;2024-03-07T09:46:55;11.30;1.00
13221;DHT22;6675;48.128;11.478;2024-03-07T09:49:21;11.00;1.00
13221;DHT22;6675;48.128;11.478;2024-03-07T09:51:48;8.80;1.00
13221;DHT22;6675;48.128;11.478;2024-03-07T09:54:20;9.80;1.00
13221;DHT22;6675;48.128;11.478;2024-03-07T09:56:46;11.10;1.00
13221;DHT22;6675;48.128;11.478;2024-03-07T09:59:14;8.90;1.00
13221;DHT22;6675;48.128;11.478;2024-03-07T10:01:45;9.30;1.00
13221;DHT22;6675;48.128;11.478;2024-03-07T10:04:13;9.30;1.00
13221;DHT22;6675;48.128;11.478;2024-03-07T10:06:40;10.70;1.00
13221;DHT22;6675;48.128;11.478;2024-03-07T10:09:10;8.80;1.00
13221;DHT22;6675;48.128;11.478;2024-03-07T10:11:39;8.90;1.00
13221;DHT22;6675;48.128;11.478;2024-03-07T10:14:05;9.60;1.00
13221;DHT22;6675;48.128;11.478;2024-03-07T10:16:32;9.00;1.00
13221;DHT22;6675;48.128;11.478;2024-03-07T10:18:58;9.10;1.00
13221;DHT22;6675;48.128;11.478;2024-03-07T10:21:26;9.40;1.00
13221;DHT22;6675;48.128;11.478;2024-03-07T10:24:04;6.70;1.00
13221;DHT22;6675;48.128;11.478;2024-03-07T10:26:35;8.40;1.00
13221;DHT22;6675;48.128;11.478;2024-03-07T10:29:01;8.50;1.00
13221;DHT22;6675;48.128;11.478;2024-03-07T10:31:31;7.50;1.00
13221;DHT22;6675;48.128;11.478;2024-03-07T10:34:03;7.60;1.00
13221;DHT22;6675;48.128;11.478;2024-03-07T10:36:33;8.50;1.00
13221;DHT22;6675;48.128;11.478;2024-03-07T10:39:02;9.00;1.00
13221;DHT22;6675;48.128;11.478;2024-03-07T10:41:35;9.00;1.00
13221;DHT22;6675;48.128;11.478;2024-03-07T10:44:03;10.50;1.00
13221;DHT22;6675;48.128;11.478;2024-03-07T10:46:29;8.50;1.00
13221;DHT22;6675;48.128;11.478;2024-03-07T10:48:59;10.00;1.00
13221;DHT22;6675;48.128;11.478;2024-03-07T10:51:40;8.30;1.00
13221;DHT22;6675;48.128;11.478;2024-03-07T10:54:38;8.20;1.00
13221;DHT22;6675;48.128;11.478;2024-03-07T10:57:41;6.60;1.00
13221;DHT22;6675;48.128;11.478;2024-03-07T11:00:10;8.00;1.00
13221;DHT22;6675;48.128;11.478;2024-03-07T11:02:56;7.00;1.00
13221;DHT22;6675;48.128;11.478;2024-03-07T11:05:30;7.60;1.00
13221;DHT22;6675;48.128;11.478;2024-03-07T11:07:58;9.00;1.00
13221;DHT22;6675;48.128;11.478;2024-03-07T11:10:25;7.80;1.00
13221;DHT22;6675;48.128;11.478;2024-03-07T11:12:52;9.50;1.00
13221;DHT22;6675;48.128;11.478;2024-03-07T11:15:18;7.40;1.00
13221;DHT22;6675;48.128;11.478;2024-03-07T11:17:47;5.30;1.00
13221;DHT22;6675;48.128;11.478;2024-03-07T11:20:23;7.50;1.00
13221;DHT22;6675;48.128;11.478;2024-03-07T11:22:49;9.40;1.00
13221;DHT22;6675;48.128;11.478;2024-03-07T11:25:17;7.50;1.00
13221;DHT22;6675;48.128;11.478;2024-03-07T11:27:51;7.50;1.00
13221;DHT22;6675;48.128;11.478;2024-03-07T11:30:19;9.30;1.00
13221;DHT22;6675;48.128;11.478;2024-03-07T11:32:46;8.20;1.00
13221;DHT22;6675;48.128;11.478;2024-03-07T11:35:14;7.80;1.00
13221;DHT22;6675;48.128;11.478;2024-03-07T11:37:43;7.60;1.00
13221;DHT22;6675;48.128;11.478;2024-03-07T11:40:12;8.30;1.00
13221;DHT22;6675;48.128;11.478;2024-03-07T11:42:46;10.70;1.00
13221;DHT22;6675;48.128;11.478;2024-03-07T11:45:13;8.80;1.00
13221;DHT22;6675;48.128;11.478;2024-03-07T11:47:51;9.20;1.00
13221;DHT22;6675;48.128;11.478;2024-03-07T11:50:23;7.50;1.00
13221;DHT22;6675;48.128;11.478;2024-03-07T11:52:52;9.00;1.00
13221;DHT22;6675;48.128;11.478;2024-03-07T11:55:18;9.40;1.00
13221;DHT22;6675;48.128;11.478;2024-03-07T11:57:45;8.30;1.00
13221;DHT22;6675;48.128;11.478;2024-03-07T12:00:12;9.10;1.00
13221;DHT22;6675;48.128;11.478;2024-03-07T12:02:39;9.10;1.00
13221;DHT22;6675;48.128;11.478;2024-03-07T12:05:06;8.20;1.00
13221;DHT22;6675;48.128;11.478;2024-03-07T12:07:32;9.30;1.00
13221;DHT22;6675;48.128;11.478;2024-03-07T12:09:59;8.80;1.00
13221;DHT22;6675;48.128;11.478;2024-03-07T12:12:25;9.10;1.00
13221;DHT22;6675;48.128;11.478;2024-03-07T12:14:54;9.10;1.00
13221;DHT22;6675;48.128;11.478;2024-03-07T12:17:21;7.40;1.00
13221;DHT22;6675;48.128;11.478;2024-03-07T12:19:47;7.20;1.00
13221;DHT22;6675;48.128;11.478;2024-03-07T12:22:13;8.70;1.00
13221;DHT22;6675;48.128;11.478;2024-03-07T12:24:42;9.50;1.00
13221;DHT22;6675;48.128;11.478;2024-03-07T12:27:12;9.70;1.00
13221;DHT22;6675;48.128;11.478;2024-03-07T12:29:39;9.60;1.00
13221;DHT22;6675;48.128;11.478;2024-03-07T12:32:09;8.70;1.00
13221;DHT22;6675;48.128;11.478;2024-03-07T12:34:36;10.30;1.00
13221;DHT22;6675;48.128;11.478;2024-03-07T12:37:11;10.30;1.00
13221;DHT22;6675;48.128;11.478;2024-03-07T12:39:41;9.70;1.00
13221;DHT22;6675;48.128;11.478;2024-03-07T12:42:15;8.10;1.00
13221;DHT22;6675;48.128;11.478;2024-03-07T12:44:42;9.90;1.00
13221;DHT22;6675;48.128;11.478;2024-03-07T12:47:14;10.80;1.00
13221;DHT22;6675;48.128;11.478;2024-03-07T12:49:44;7.40;1.00
13221;DHT22;6675;48.128;11.478;2024-03-07T12:52:11;8.70;1.00
13221;DHT22;6675;48.128;11.478;2024-03-07T12:54:40;7.60;1.00
13221;DHT22;6675;48.128;11.478;2024-03-07T12:57:15;8.70;1.00
13221;DHT22;6675;48.128;11.478;2024-03-07T12:59:41;8.60;1.00
13221;DHT22;6675;48.128;11.478;2024-03-07T13:02:12;8.60;1.00
13221;DHT22;6675;48.128;11.478;2024-03-07T13:04:38;8.50;1.00
13221;DHT22;6675;48.128;11.478;2024-03-07T13:07:04;8.30;1.00
13221;DHT22;6675;48.128;11.478;2024-03-07T13:09:30;8.20;1.00
13221;DHT22;6675;48.128;11.478;2024-03-07T13:11:58;7.90;1.00
13221;DHT22;6675;48.128;11.478;2024-03-07T13:14:29;7.90;1.00
13221;DHT22;6675;48.128;11.478;2024-03-07T13:17:03;9.70;1.00
13221;DHT22;6675;48.128;11.478;2024-03-07T13:19:30;8.40;1.00
13221;DHT22;6675;48.128;11.478;2024-03-07T13:21:56;8.60;1.00
13221;DHT22;6675;48.128;11.478;2024-03-07T13:24:27;8.80;1.00
13221;DHT22;6675;48.128;11.478;2024-03-07T13:26:53;8.90;1.00
13221;DHT22;6675;48.128;11.478;2024-03-07T13:29:19;9.30;1.00
13221;DHT22;6675;48.128;11.478;2024-03-07T13:31:51;12.00;1.00
13221;DHT22;6675;48.128;11.478;2024-03-07T13:34:17;10.50;1.00
13221;DHT22;6675;48.128;11.478;2024-03-07T13:36:43;12.50;1.00
13221;DHT22;6675;48.128;11.478;2024-03-07T13:39:10;10.60;1.00
13221;DHT22;6675;48.128;11.478;2024-03-07T13:41:37;12.20;1.00
13221;DHT22;6675;48.128;11.478;2024-03-07T13:44:04;12.10;1.00
13221;DHT22;6675;48.128;11.478;2024-03-07T13:46:29;10.60;1.00
13221;DHT22;6675;48.128;11.478;2024-03-07T13:48:56;9.70;1.00
13221;DHT22;6675;48.128;11.478;2024-03-07T13:51:32;8.40;1.00
13221;DHT22;6675;48.128;11.478;2024-03-07T13:54:00;10.80;1.00
13221;DHT22;6675;48.128;11.478;2024-03-07T13:57:36;10.50;1.00
13221;DHT22;6675;48.128;11.478;2024-03-07T14:03:14;8.60;1.00
13221;DHT22;6675;48.128;11.478;2024-03-07T14:06:03;10.30;1.00
13221;DHT22;6675;48.128;11.478;2024-03-07T14:08:36;10.10;1.00
13221;DHT22;6675;48.128;11.478;2024-03-07T14:22:54;10.10;1.00
13221;DHT22;6675;48.128;11.478;2024-03-07T14:25:48;10.20;1.00
13221;DHT22;6675;48.128;11.478;2024-03-07T14:30:57;10.20;1.00
13221;DHT22;6675;48.128;11.478;2024-03-07T14:33:29;9.80;1.00
13221;DHT22;6675;48.128;11.478;2024-03-07T14:36:10;9.90;1.00
13221;DHT22;6675;48.128;11.478;2024-03-07T14:38:56;9.50;1.00
13221;DHT22;6675;48.128;11.478;2024-03-07T14:44:17;9.30;1.00
13221;DHT22;6675;48.128;11.478;2024-03-07T14:46:43;9.20;1.00
13221;DHT22;6675;48.128;11.478;2024-03-07T14:49:17;9.20;1.00
13221;DHT22;6675;48.128;11.478;2024-03-07T14:51:43;7.80;1.00
13221;DHT22;6675;48.128;11.478;2024-03-07T14:54:10;9.40;1.00
13221;DHT22;6675;48.128;11.478;2024-03-07T14:56:36;11.10;1.00
13221;DHT22;6675;48.128;11.478;2024-03-07T14:59:02;8.90;1.00
13221;DHT22;6675;48.128;11.478;2024-03-07T15:01:29;8.90;1.00
13221;DHT22;6675;48.128;11.478;2024-03-07T15:03:56;9.00;1.00
13221;DHT22;6675;48.128;11.478;2024-03-07T15:08:49;10.80;1.00
13221;DHT22;6675;48.128;11.478;2024-03-07T15:11:33;8.70;1.00
13221;DHT22;6675;48.128;11.478;2024-03-07T15:13:59;8.80;1.00
13221;DHT22;6675;48.128;11.478;2024-03-07T15:16:30;8.50;1.00
13221;DHT22;6675;48.128;11.478;2024-03-07T15:19:00;8.40;1.00
13221;DHT22;6675;48.128;11.478;2024-03-07T15:21:26;8.30;1.00
13221;DHT22;6675;48.128;11.478;2024-03-07T15:23:54;6.30;1.00
13221;DHT22;6675;48.128;11.478;2024-03-07T15:26:20;7.90;1.00
13221;DHT22;6675;48.128;11.478;2024-03-07T15:28:52;7.80;1.00
13221;DHT22;6675;48.128;11.478;2024-03-07T15:31:19;6.80;1.00
13221;DHT22;6675;48.128;11.478;2024-03-07T15:33:47;8.40;1.00
13221;DHT22;6675;48.128;11.478;2024-03-07T15:36:14;8.10;1.00
13221;DHT22;6675;48.128;11.478;2024-03-07T15:38:40;6.40;1.00
13221;DHT22;6675;48.128;11.478;2024-03-07T15:41:05;8.00;1.00
13221;DHT22;6675;48.128;11.478;2024-03-07T15:43:37;6.20;1.00
13221;DHT22;6675;48.128;11.478;2024-03-07T15:46:03;9.60;1.00
13221;DHT22;6675;48.128;11.478;2024-03-07T15:48:32;8.00;1.00
13221;DHT22;6675;48.128;11.478;2024-03-07T15:50:58;8.10;1.00
13221;DHT22;6675;48.128;11.478;2024-03-07T15:53:24;7.90;1.00
13221;DHT22;6675;48.128;11.478;2024-03-07T15:55:50;7.10;1.00
13221;DHT22;6675;48.128;11.478;2024-03-07T15:58:16;6.50;1.00
13221;DHT22;6675;48.128;11.478;2024-03-07T16:00:44;7.60;1.00
13221;DHT22;6675;48.128;11.478;2024-03-07T16:03:13;7.40;1.00
13221;DHT22;6675;48.128;11.478;2024-03-07T16:05:41;8.60;1.00
13221;DHT22;6675;48.128;11.478;2024-03-07T16:08:09;9.40;1.00
13221;DHT22;6675;48.128;11.478;2024-03-07T16:10:37;6.90;1.00
13221;DHT22;6675;48.128;11.478;2024-03-07T16:13:06;7.40;1.00
13221;DHT22;6675;48.128;11.478;2024-03-07T16:15:33;6.80;1.00
13221;DHT22;6675;48.128;11.478;2024-03-07T16:17:59;9.30;1.00
13221;DHT22;6675;48.128;11.478;2024-03-07T16:20:25;7.10;1.00
13221;DHT22;6675;48.128;11.478;2024-03-07T16:22:51;7.20;1.00
13221;DHT22;6675;48.128;11.478;2024-03-07T16:25:19;9.10;1.00
13221;DHT22;6675;48.128;11.478;2024-03-07T16:27:49;6.60;1.00
13221;DHT22;6675;48.128;11.478;2024-03-07T16:30:16;6.90;1.00
13221;DHT22;6675;48.128;11.478;2024-03-07T16:32:45;6.80;1.00
13221;DHT22;6675;48.128;11.478;2024-03-07T16:35:16;4.30;1.00
13221;DHT22;6675;48.128;11.478;2024-03-07T16:37:47;6.70;1.00
13221;DHT22;6675;48.128;11.478;2024-03-07T16:40:17;6.90;1.00
13221;DHT22;6675;48.128;11.478;2024-03-07T16:42:48;6.60;1.00
13221;DHT22;6675;48.128;11.478;2024-03-07T16:45:18;8.70;1.10
13221;DHT22;6675;48.128;11.478;2024-03-07T16:47:48;7.60;1.00
13221;DHT22;6675;48.128;11.478;2024-03-07T16:50:17;5.10;1.00
13221;DHT22;6675;48.128;11.478;2024-03-07T16:52:43;5.40;1.00
13221;DHT22;6675;48.128;11.478;2024-03-07T16:55:11;8.50;3.60